sensor_id;sensor_type;location;lat;lon;timestamp;P1;durP1;ratioP1;P2;durP2;ratioP2
80711;SDS011;70078;51.596;5.678;2023-11-19T00:00:15;6.03;;;4.45;;
80711;SDS011;70078;51.596;5.678;2023-11-19T00:02:41;7.28;;;5.13;;
80711;SDS011;70078;51.596;5.678;2023-11-19T00:05:07;9.73;;;5.07;;
80711;SDS011;70078;51.596;5.678;2023-11-19T00:07:34;6.82;;;5.78;;
80711;SDS011;70078;51.596;5.678;2023-11-19T00:10:13;7.18;;;6.05;;
80711;SDS011;70078;51.596;5.678;2023-11-19T00:12:40;6.43;;;5.03;;
80711;SDS011;70078;51.596;5.678;2023-11-19T00:15:06;6.55;;;5.80;;
80711;SDS011;70078;51.596;5.678;2023-11-19T00:17:36;5.97;;;4.45;;
80711;SDS011;70078;51.596;5.678;2023-11-19T00:20:02;7.07;;;4.78;;
80711;SDS011;70078;51.596;5.678;2023-11-19T00:22:30;6.68;;;5.20;;
80711;SDS011;70078;51.596;5.678;2023-11-19T00:24:56;6.80;;;4.85;;
80711;SDS011;70078;51.596;5.678;2023-11-19T00:27:21;6.68;;;4.75;;
80711;SDS011;70078;51.596;5.678;2023-11-19T00:29:47;6.03;;;4.80;;
80711;SDS011;70078;51.596;5.678;2023-11-19T00:32:12;9.30;;;5.35;;
80711;SDS011;70078;51.596;5.678;2023-11-19T00:34:37;6.25;;;4.68;;
80711;SDS011;70078;51.596;5.678;2023-11-19T00:37:03;5.20;;;4.43;;
80711;SDS011;70078;51.596;5.678;2023-11-19T00:39:29;8.30;;;5.13;;
80711;SDS011;70078;51.596;5.678;2023-11-19T00:41:54;6.25;;;4.60;;
80711;SDS011;70078;51.596;5.678;2023-11-19T00:44:19;7.97;;;4.30;;
80711;SDS011;70078;51.596;5.678;2023-11-19T00:46:44;7.00;;;4.63;;
80711;SDS011;70078;51.596;5.678;2023-11-19T00:49:10;9.02;;;4.50;;
80711;SDS011;70078;51.596;5.678;2023-11-19T00:51:36;7.82;;;4.60;;
80711;SDS011;70078;51.596;5.678;2023-11-19T00:54:02;7.95;;;4.00;;
80711;SDS011;70078;51.596;5.678;2023-11-19T00:56:28;8.75;;;4.70;;
80711;SDS011;70078;51.596;5.678;2023-11-19T00:58:53;7.38;;;4.28;;
80711;SDS011;70078;51.596;5.678;2023-11-19T01:01:19;9.77;;;3.53;;
80711;SDS011;70078;51.596;5.678;2023-11-19T01:03:44;8.18;;;3.75;;
80711;SDS011;70078;51.596;5.678;2023-11-19T01:06:10;5.68;;;4.40;;
80711;SDS011;70078;51.596;5.678;2023-11-19T01:08:35;8.30;;;4.18;;
80711;SDS011;70078;51.596;5.678;2023-11-19T01:11:01;6.80;;;3.58;;
80711;SDS011;70078;51.596;5.678;2023-11-19T01:13:30;6.55;;;3.83;;
80711;SDS011;70078;51.596;5.678;2023-11-19T01:15:55;7.45;;;4.30;;
80711;SDS011;70078;51.596;5.678;2023-11-19T01:18:21;8.50;;;2.83;;
80711;SDS011;70078;51.596;5.678;2023-11-19T01:20:47;9.60;;;4.13;;
80711;SDS011;70078;51.596;5.678;2023-11-19T01:23:12;9.52;;;4.82;;
80711;SDS011;70078;51.596;5.678;2023-11-19T01:25:38;6.75;;;4.10;;
80711;SDS011;70078;51.596;5.678;2023-11-19T01:28:03;10.48;;;3.90;;
80711;SDS011;70078;51.596;5.678;2023-11-19T01:30:29;7.43;;;3.50;;
80711;SDS011;70078;51.596;5.678;2023-11-19T01:32:55;5.57;;;2.97;;
80711;SDS011;70078;51.596;5.678;2023-11-19T01:35:20;8.77;;;3.78;;
80711;SDS011;70078;51.596;5.678;2023-11-19T01:37:48;8.45;;;3.85;;
80711;SDS011;70078;51.596;5.678;2023-11-19T01:40:15;7.72;;;4.35;;
80711;SDS011;70078;51.596;5.678;2023-11-19T01:42:45;7.55;;;3.83;;
80711;SDS011;70078;51.596;5.678;2023-11-19T01:45:10;7.85;;;3.90;;
80711;SDS011;70078;51.596;5.678;2023-11-19T01:47:47;4.63;;;3.35;;
80711;SDS011;70078;51.596;5.678;2023-11-19T01:50:12;10.27;;;4.20;;
80711;SDS011;70078;51.596;5.678;2023-11-19T01:52:38;8.45;;;3.25;;
80711;SDS011;70078;51.596;5.678;2023-11-19T01:55:04;14.20;;;3.72;;
80711;SDS011;70078;51.596;5.678;2023-11-19T01:57:31;10.80;;;3.80;;
80711;SDS011;70078;51.596;5.678;2023-11-19T01:59:56;11.65;;;3.65;;
80711;SDS011;70078;51.596;5.678;2023-11-19T02:02:22;7.88;;;3.38;;
80711;SDS011;70078;51.596;5.678;2023-11-19T02:04:49;13.27;;;3.70;;
80711;SDS011;70078;51.596;5.678;2023-11-19T02:07:15;6.88;;;3.53;;
80711;SDS011;70078;51.596;5.678;2023-11-19T02:09:42;8.73;;;3.42;;
80711;SDS011;70078;51.596;5.678;2023-11-19T02:12:08;13.02;;;3.65;;
80711;SDS011;70078;51.596;5.678;2023-11-19T02:14:36;12.93;;;3.63;;
80711;SDS011;70078;51.596;5.678;2023-11-19T02:17:02;12.60;;;4.80;;
80711;SDS011;70078;51.596;5.678;2023-11-19T02:19:27;9.63;;;3.75;;
80711;SDS011;70078;51.596;5.678;2023-11-19T02:21:53;7.03;;;3.35;;
80711;SDS011;70078;51.596;5.678;2023-11-19T02:24:20;13.50;;;3.42;;
80711;SDS011;70078;51.596;5.678;2023-11-19T02:29:49;8.20;;;3.25;;
80711;SDS011;70078;51.596;5.678;2023-11-19T02:32:15;8.35;;;3.85;;
80711;SDS011;70078;51.596;5.678;2023-11-19T02:34:40;10.85;;;3.95;;
80711;SDS011;70078;51.596;5.678;2023-11-19T02:37:06;13.07;;;4.72;;
80711;SDS011;70078;51.596;5.678;2023-11-19T02:41:56;12.27;;;3.97;;
80711;SDS011;70078;51.596;5.678;2023-11-19T02:44:21;12.10;;;3.70;;
80711;SDS011;70078;51.596;5.678;2023-11-19T02:46:47;12.77;;;3.80;;
80711;SDS011;70078;51.596;5.678;2023-11-19T02:49:13;10.07;;;4.00;;
80711;SDS011;70078;51.596;5.678;2023-11-19T02:51:39;8.77;;;3.28;;
80711;SDS011;70078;51.596;5.678;2023-11-19T02:54:04;13.57;;;5.20;;
80711;SDS011;70078;51.596;5.678;2023-11-19T02:56:30;10.25;;;3.90;;
80711;SDS011;70078;51.596;5.678;2023-11-19T02:58:59;11.85;;;4.07;;
80711;SDS011;70078;51.596;5.678;2023-11-19T03:01:28;10.60;;;3.88;;
80711;SDS011;70078;51.596;5.678;2023-11-19T03:04:01;11.85;;;3.97;;
80711;SDS011;70078;51.596;5.678;2023-11-19T03:06:27;7.43;;;2.90;;
80711;SDS011;70078;51.596;5.678;2023-11-19T03:08:54;7.95;;;3.72;;
80711;SDS011;70078;51.596;5.678;2023-11-19T03:11:19;7.85;;;3.35;;
80711;SDS011;70078;51.596;5.678;2023-11-19T03:16:11;14.23;;;4.03;;
80711;SDS011;70078;51.596;5.678;2023-11-19T03:18:37;10.63;;;3.65;;
80711;SDS011;70078;51.596;5.678;2023-11-19T03:21:03;11.75;;;3.97;;
80711;SDS011;70078;51.596;5.678;2023-11-19T03:23:29;15.63;;;4.07;;
80711;SDS011;70078;51.596;5.678;2023-11-19T03:25:55;11.35;;;3.80;;
80711;SDS011;70078;51.596;5.678;2023-11-19T03:28:22;12.63;;;3.90;;
80711;SDS011;70078;51.596;5.678;2023-11-19T03:30:47;9.95;;;3.85;;
80711;SDS011;70078;51.596;5.678;2023-11-19T03:33:12;13.65;;;3.90;;
80711;SDS011;70078;51.596;5.678;2023-11-19T03:38:03;18.00;;;3.60;;
80711;SDS011;70078;51.596;5.678;2023-11-19T03:40:28;15.15;;;4.50;;
80711;SDS011;70078;51.596;5.678;2023-11-19T03:42:55;14.93;;;4.15;;
80711;SDS011;70078;51.596;5.678;2023-11-19T03:45:23;12.55;;;4.00;;
80711;SDS011;70078;51.596;5.678;2023-11-19T03:47:49;13.55;;;3.90;;
80711;SDS011;70078;51.596;5.678;2023-11-19T03:50:15;19.65;;;4.28;;
80711;SDS011;70078;51.596;5.678;2023-11-19T03:55:06;16.13;;;3.77;;
80711;SDS011;70078;51.596;5.678;2023-11-19T03:57:33;14.35;;;4.25;;
80711;SDS011;70078;51.596;5.678;2023-11-19T03:59:59;18.23;;;3.42;;
80711;SDS011;70078;51.596;5.678;2023-11-19T04:04:52;12.43;;;3.97;;
80711;SDS011;70078;51.596;5.678;2023-11-19T04:09:43;15.15;;;3.47;;
80711;SDS011;70078;51.596;5.678;2023-11-19T04:14:34;14.43;;;3.90;;
80711;SDS011;70078;51.596;5.678;2023-11-19T04:17:01;19.75;;;3.20;;
80711;SDS011;70078;51.596;5.678;2023-11-19T04:19:27;15.98;;;3.70;;
80711;SDS011;70078;51.596;5.678;2023-11-19T04:24:17;12.23;;;4.23;;
80711;SDS011;70078;51.596;5.678;2023-11-19T04:26:44;15.88;;;4.70;;
80711;SDS011;70078;51.596;5.678;2023-11-19T04:29:11;16.55;;;5.03;;
80711;SDS011;70078;51.596;5.678;2023-11-19T04:31:38;16.20;;;4.53;;
80711;SDS011;70078;51.596;5.678;2023-11-19T04:34:04;16.10;;;4.20;;
80711;SDS011;70078;51.596;5.678;2023-11-19T04:36:31;17.50;;;5.07;;
80711;SDS011;70078;51.596;5.678;2023-11-19T04:38:58;19.40;;;4.03;;
80711;SDS011;70078;51.596;5.678;2023-11-19T04:41:24;17.17;;;4.88;;
80711;SDS011;70078;51.596;5.678;2023-11-19T04:46:15;25.20;;;5.60;;
80711;SDS011;70078;51.596;5.678;2023-11-19T04:48:40;17.52;;;4.18;;
80711;SDS011;70078;51.596;5.678;2023-11-19T04:51:06;21.00;;;4.57;;
80711;SDS011;70078;51.596;5.678;2023-11-19T04:53:34;16.23;;;4.72;;
80711;SDS011;70078;51.596;5.678;2023-11-19T04:58:25;17.40;;;4.33;;
80711;SDS011;70078;51.596;5.678;2023-11-19T05:03:15;14.65;;;3.90;;
80711;SDS011;70078;51.596;5.678;2023-11-19T05:05:40;19.23;;;4.28;;
80711;SDS011;70078;51.596;5.678;2023-11-19T05:10:31;16.27;;;4.33;;
80711;SDS011;70078;51.596;5.678;2023-11-19T05:12:56;16.45;;;4.10;;
80711;SDS011;70078;51.596;5.678;2023-11-19T05:17:47;25.55;;;5.07;;
80711;SDS011;70078;51.596;5.678;2023-11-19T05:20:13;18.48;;;4.90;;
80711;SDS011;70078;51.596;5.678;2023-11-19T05:22:41;19.63;;;4.57;;
80711;SDS011;70078;51.596;5.678;2023-11-19T05:25:07;17.63;;;4.38;;
80711;SDS011;70078;51.596;5.678;2023-11-19T05:27:36;14.20;;;4.13;;
80711;SDS011;70078;51.596;5.678;2023-11-19T05:32:28;14.45;;;4.30;;
80711;SDS011;70078;51.596;5.678;2023-11-19T05:37:18;18.67;;;4.90;;
80711;SDS011;70078;51.596;5.678;2023-11-19T05:39:44;18.45;;;5.38;;
80711;SDS011;70078;51.596;5.678;2023-11-19T05:42:10;10.30;;;3.95;;
80711;SDS011;70078;51.596;5.678;2023-11-19T05:47:01;21.02;;;4.00;;
80711;SDS011;70078;51.596;5.678;2023-11-19T05:51:52;24.63;;;5.10;;
80711;SDS011;70078;51.596;5.678;2023-11-19T05:54:20;25.95;;;4.25;;
80711;SDS011;70078;51.596;5.678;2023-11-19T05:59:14;19.38;;;4.30;;
80711;SDS011;70078;51.596;5.678;2023-11-19T06:01:42;18.60;;;3.75;;
80711;SDS011;70078;51.596;5.678;2023-11-19T06:06:33;18.97;;;4.03;;
80711;SDS011;70078;51.596;5.678;2023-11-19T06:11:24;22.35;;;4.20;;
80711;SDS011;70078;51.596;5.678;2023-11-19T06:13:51;18.65;;;4.45;;
80711;SDS011;70078;51.596;5.678;2023-11-19T06:18:42;13.63;;;3.47;;
80711;SDS011;70078;51.596;5.678;2023-11-19T06:21:09;18.95;;;4.45;;
80711;SDS011;70078;51.596;5.678;2023-11-19T06:25:59;27.73;;;3.80;;
80711;SDS011;70078;51.596;5.678;2023-11-19T06:30:50;15.98;;;4.03;;
80711;SDS011;70078;51.596;5.678;2023-11-19T06:35:40;20.77;;;4.00;;
80711;SDS011;70078;51.596;5.678;2023-11-19T06:40:32;19.77;;;3.50;;
80711;SDS011;70078;51.596;5.678;2023-11-19T06:42:57;19.30;;;4.28;;
80711;SDS011;70078;51.596;5.678;2023-11-19T06:47:48;16.07;;;3.77;;
80711;SDS011;70078;51.596;5.678;2023-11-19T06:52:40;13.80;;;3.65;;
80711;SDS011;70078;51.596;5.678;2023-11-19T06:57:31;15.98;;;3.60;;
80711;SDS011;70078;51.596;5.678;2023-11-19T07:02:23;18.42;;;3.85;;
80711;SDS011;70078;51.596;5.678;2023-11-19T07:07:14;15.80;;;3.85;;
80711;SDS011;70078;51.596;5.678;2023-11-19T07:09:40;20.38;;;3.55;;
80711;SDS011;70078;51.596;5.678;2023-11-19T07:14:31;17.85;;;4.63;;
80711;SDS011;70078;51.596;5.678;2023-11-19T07:19:22;16.98;;;3.97;;
80711;SDS011;70078;51.596;5.678;2023-11-19T07:24:13;21.92;;;4.43;;
80711;SDS011;70078;51.596;5.678;2023-11-19T07:29:08;21.13;;;4.15;;
80711;SDS011;70078;51.596;5.678;2023-11-19T07:33:59;20.80;;;4.70;;
80711;SDS011;70078;51.596;5.678;2023-11-19T07:38:49;16.48;;;4.28;;
80711;SDS011;70078;51.596;5.678;2023-11-19T07:43:41;20.13;;;4.07;;
80711;SDS011;70078;51.596;5.678;2023-11-19T07:46:12;19.27;;;4.78;;
80711;SDS011;70078;51.596;5.678;2023-11-19T07:48:41;18.60;;;4.13;;
80711;SDS011;70078;51.596;5.678;2023-11-19T07:51:07;16.88;;;3.47;;
80711;SDS011;70078;51.596;5.678;2023-11-19T07:55:58;15.93;;;3.88;;
80711;SDS011;70078;51.596;5.678;2023-11-19T07:58:27;21.13;;;5.40;;
80711;SDS011;70078;51.596;5.678;2023-11-19T08:03:17;23.73;;;3.95;;
80711;SDS011;70078;51.596;5.678;2023-11-19T08:05:44;22.20;;;4.28;;
80711;SDS011;70078;51.596;5.678;2023-11-19T08:10:35;19.23;;;5.37;;
80711;SDS011;70078;51.596;5.678;2023-11-19T08:13:00;15.10;;;3.20;;
80711;SDS011;70078;51.596;5.678;2023-11-19T08:17:50;18.93;;;4.27;;
80711;SDS011;70078;51.596;5.678;2023-11-19T08:23:04;16.58;;;3.97;;
80711;SDS011;70078;51.596;5.678;2023-11-19T08:25:30;17.23;;;4.53;;
80711;SDS011;70078;51.596;5.678;2023-11-19T08:30:20;23.97;;;4.10;;
80711;SDS011;70078;51.596;5.678;2023-11-19T08:35:11;28.10;;;5.82;;
80711;SDS011;70078;51.596;5.678;2023-11-19T08:37:36;22.60;;;4.65;;
80711;SDS011;70078;51.596;5.678;2023-11-19T08:42:29;19.10;;;4.20;;
80711;SDS011;70078;51.596;5.678;2023-11-19T08:47:20;24.23;;;6.20;;
80711;SDS011;70078;51.596;5.678;2023-11-19T08:49:47;22.67;;;7.40;;
80711;SDS011;70078;51.596;5.678;2023-11-19T08:54:38;27.43;;;5.97;;
80711;SDS011;70078;51.596;5.678;2023-11-19T08:57:07;15.43;;;4.57;;
80711;SDS011;70078;51.596;5.678;2023-11-19T08:59:33;17.98;;;5.00;;
80711;SDS011;70078;51.596;5.678;2023-11-19T09:01:59;22.55;;;6.75;;
80711;SDS011;70078;51.596;5.678;2023-11-19T09:04:24;17.75;;;5.78;;
80711;SDS011;70078;51.596;5.678;2023-11-19T09:06:50;26.60;;;5.80;;
80711;SDS011;70078;51.596;5.678;2023-11-19T09:09:15;25.13;;;6.32;;
80711;SDS011;70078;51.596;5.678;2023-11-19T09:14:06;17.70;;;4.88;;
80711;SDS011;70078;51.596;5.678;2023-11-19T09:16:32;21.30;;;6.57;;
80711;SDS011;70078;51.596;5.678;2023-11-19T09:18:57;19.48;;;6.55;;
80711;SDS011;70078;51.596;5.678;2023-11-19T09:21:24;18.83;;;4.45;;
80711;SDS011;70078;51.596;5.678;2023-11-19T09:23:50;23.75;;;5.28;;
80711;SDS011;70078;51.596;5.678;2023-11-19T09:28:41;12.20;;;5.23;;
80711;SDS011;70078;51.596;5.678;2023-11-19T09:31:13;19.15;;;4.82;;
80711;SDS011;70078;51.596;5.678;2023-11-19T09:33:41;20.50;;;4.82;;
80711;SDS011;70078;51.596;5.678;2023-11-19T09:36:07;21.40;;;5.13;;
80711;SDS011;70078;51.596;5.678;2023-11-19T09:38:33;17.52;;;4.10;;
80711;SDS011;70078;51.596;5.678;2023-11-19T09:40:58;15.65;;;4.93;;
80711;SDS011;70078;51.596;5.678;2023-11-19T09:43:26;22.48;;;5.20;;
80711;SDS011;70078;51.596;5.678;2023-11-19T09:45:53;18.85;;;5.43;;
80711;SDS011;70078;51.596;5.678;2023-11-19T09:48:21;27.65;;;5.47;;
80711;SDS011;70078;51.596;5.678;2023-11-19T09:50:46;22.92;;;5.78;;
80711;SDS011;70078;51.596;5.678;2023-11-19T09:53:13;22.77;;;5.18;;
80711;SDS011;70078;51.596;5.678;2023-11-19T09:55:39;17.83;;;4.57;;
80711;SDS011;70078;51.596;5.678;2023-11-19T09:58:04;30.00;;;6.30;;
80711;SDS011;70078;51.596;5.678;2023-11-19T10:00:31;21.10;;;4.43;;
80711;SDS011;70078;51.596;5.678;2023-11-19T10:02:57;18.33;;;5.20;;
80711;SDS011;70078;51.596;5.678;2023-11-19T10:05:24;21.27;;;5.78;;
80711;SDS011;70078;51.596;5.678;2023-11-19T10:07:49;22.15;;;4.22;;
80711;SDS011;70078;51.596;5.678;2023-11-19T10:10:15;16.70;;;4.95;;
80711;SDS011;70078;51.596;5.678;2023-11-19T10:12:44;19.70;;;5.25;;
80711;SDS011;70078;51.596;5.678;2023-11-19T10:15:14;19.55;;;4.57;;
80711;SDS011;70078;51.596;5.678;2023-11-19T10:17:44;24.63;;;5.75;;
80711;SDS011;70078;51.596;5.678;2023-11-19T10:20:10;15.38;;;5.13;;
80711;SDS011;70078;51.596;5.678;2023-11-19T10:22:38;17.88;;;4.18;;
80711;SDS011;70078;51.596;5.678;2023-11-19T10:25:05;15.52;;;4.68;;
80711;SDS011;70078;51.596;5.678;2023-11-19T10:27:46;17.25;;;4.53;;
80711;SDS011;70078;51.596;5.678;2023-11-19T10:30:11;19.30;;;5.22;;
80711;SDS011;70078;51.596;5.678;2023-11-19T10:32:37;15.63;;;5.75;;
80711;SDS011;70078;51.596;5.678;2023-11-19T10:35:05;16.55;;;4.32;;
80711;SDS011;70078;51.596;5.678;2023-11-19T10:37:33;22.88;;;5.22;;
80711;SDS011;70078;51.596;5.678;2023-11-19T10:40:01;16.73;;;4.75;;
80711;SDS011;70078;51.596;5.678;2023-11-19T10:42:26;17.98;;;3.75;;
80711;SDS011;70078;51.596;5.678;2023-11-19T10:44:51;21.10;;;5.53;;
80711;SDS011;70078;51.596;5.678;2023-11-19T10:47:18;18.95;;;4.70;;
80711;SDS011;70078;51.596;5.678;2023-11-19T10:49:44;18.55;;;4.13;;
80711;SDS011;70078;51.596;5.678;2023-11-19T10:52:14;19.63;;;5.72;;
80711;SDS011;70078;51.596;5.678;2023-11-19T10:54:44;15.75;;;4.95;;
80711;SDS011;70078;51.596;5.678;2023-11-19T10:57:15;17.67;;;4.78;;
80711;SDS011;70078;51.596;5.678;2023-11-19T10:59:52;18.58;;;4.60;;
80711;SDS011;70078;51.596;5.678;2023-11-19T11:02:25;15.02;;;4.72;;
80711;SDS011;70078;51.596;5.678;2023-11-19T11:04:52;20.52;;;5.07;;
80711;SDS011;70078;51.596;5.678;2023-11-19T11:07:20;17.45;;;4.85;;
80711;SDS011;70078;51.596;5.678;2023-11-19T11:09:50;17.45;;;5.55;;
80711;SDS011;70078;51.596;5.678;2023-11-19T11:12:16;14.38;;;4.70;;
80711;SDS011;70078;51.596;5.678;2023-11-19T11:14:42;15.02;;;5.03;;
80711;SDS011;70078;51.596;5.678;2023-11-19T11:17:09;18.50;;;5.15;;
80711;SDS011;70078;51.596;5.678;2023-11-19T11:19:37;19.23;;;4.63;;
80711;SDS011;70078;51.596;5.678;2023-11-19T11:22:03;13.30;;;3.63;;
80711;SDS011;70078;51.596;5.678;2023-11-19T11:27:23;15.25;;;4.25;;
80711;SDS011;70078;51.596;5.678;2023-11-19T11:33:01;16.67;;;4.63;;
80711;SDS011;70078;51.596;5.678;2023-11-19T11:38:35;15.25;;;3.70;;
80711;SDS011;70078;51.596;5.678;2023-11-19T11:43:53;13.43;;;3.85;;
80711;SDS011;70078;51.596;5.678;2023-11-19T11:49:01;17.60;;;3.97;;
80711;SDS011;70078;51.596;5.678;2023-11-19T11:57:07;11.25;;;3.45;;
80711;SDS011;70078;51.596;5.678;2023-11-19T11:59:45;14.00;;;3.70;;
80711;SDS011;70078;51.596;5.678;2023-11-19T12:02:12;11.63;;;3.63;;
80711;SDS011;70078;51.596;5.678;2023-11-19T12:04:41;16.38;;;4.03;;
80711;SDS011;70078;51.596;5.678;2023-11-19T12:07:14;17.20;;;4.32;;
80711;SDS011;70078;51.596;5.678;2023-11-19T12:09:42;10.32;;;2.42;;
80711;SDS011;70078;51.596;5.678;2023-11-19T12:20:01;11.88;;;4.88;;
80711;SDS011;70078;51.596;5.678;2023-11-19T12:22:27;18.10;;;4.88;;
80711;SDS011;70078;51.596;5.678;2023-11-19T12:24:53;12.10;;;3.65;;
80711;SDS011;70078;51.596;5.678;2023-11-19T12:27:19;10.00;;;2.92;;
80711;SDS011;70078;51.596;5.678;2023-11-19T12:29:47;12.27;;;4.22;;
80711;SDS011;70078;51.596;5.678;2023-11-19T12:32:13;17.60;;;3.90;;
80711;SDS011;70078;51.596;5.678;2023-11-19T12:34:41;12.70;;;3.50;;
80711;SDS011;70078;51.596;5.678;2023-11-19T12:37:07;12.80;;;4.10;;
80711;SDS011;70078;51.596;5.678;2023-11-19T12:39:34;18.20;;;4.78;;
80711;SDS011;70078;51.596;5.678;2023-11-19T12:42:00;16.05;;;3.90;;
80711;SDS011;70078;51.596;5.678;2023-11-19T12:44:27;10.75;;;3.30;;
80711;SDS011;70078;51.596;5.678;2023-11-19T12:47:02;18.17;;;4.07;;
80711;SDS011;70078;51.596;5.678;2023-11-19T12:49:29;16.40;;;4.50;;
80711;SDS011;70078;51.596;5.678;2023-11-19T12:51:54;12.20;;;3.50;;
80711;SDS011;70078;51.596;5.678;2023-11-19T12:54:19;16.73;;;4.35;;
80711;SDS011;70078;51.596;5.678;2023-11-19T12:56:54;16.70;;;5.05;;
80711;SDS011;70078;51.596;5.678;2023-11-19T12:59:19;18.55;;;4.38;;
80711;SDS011;70078;51.596;5.678;2023-11-19T13:01:54;17.48;;;4.22;;
80711;SDS011;70078;51.596;5.678;2023-11-19T13:04:20;14.95;;;4.10;;
80711;SDS011;70078;51.596;5.678;2023-11-19T13:06:46;16.25;;;4.45;;
80711;SDS011;70078;51.596;5.678;2023-11-19T13:09:33;17.33;;;4.28;;
80711;SDS011;70078;51.596;5.678;2023-11-19T13:11:57;17.25;;;4.60;;
80711;SDS011;70078;51.596;5.678;2023-11-19T13:14:24;12.57;;;2.92;;
80711;SDS011;70078;51.596;5.678;2023-11-19T13:17:02;13.95;;;3.65;;
80711;SDS011;70078;51.596;5.678;2023-11-19T13:19:27;11.00;;;3.85;;
80711;SDS011;70078;51.596;5.678;2023-11-19T13:21:53;18.35;;;4.32;;
80711;SDS011;70078;51.596;5.678;2023-11-19T13:24:18;17.30;;;3.83;;
80711;SDS011;70078;51.596;5.678;2023-11-19T13:26:43;18.42;;;4.30;;
80711;SDS011;70078;51.596;5.678;2023-11-19T13:29:08;10.13;;;2.58;;
80711;SDS011;70078;51.596;5.678;2023-11-19T13:31:35;12.27;;;4.10;;
80711;SDS011;70078;51.596;5.678;2023-11-19T13:34:00;10.75;;;4.20;;
80711;SDS011;70078;51.596;5.678;2023-11-19T13:36:26;14.05;;;3.08;;
80711;SDS011;70078;51.596;5.678;2023-11-19T13:38:51;12.32;;;3.35;;
80711;SDS011;70078;51.596;5.678;2023-11-19T13:41:16;16.42;;;4.10;;
80711;SDS011;70078;51.596;5.678;2023-11-19T13:43:42;16.80;;;4.43;;
80711;SDS011;70078;51.596;5.678;2023-11-19T13:46:07;11.70;;;3.97;;
80711;SDS011;70078;51.596;5.678;2023-11-19T13:48:35;11.07;;;4.03;;
80711;SDS011;70078;51.596;5.678;2023-11-19T13:51:01;11.13;;;3.35;;
80711;SDS011;70078;51.596;5.678;2023-11-19T13:53:26;12.75;;;3.92;;
80711;SDS011;70078;51.596;5.678;2023-11-19T13:55:51;9.60;;;3.63;;
80711;SDS011;70078;51.596;5.678;2023-11-19T13:58:18;11.95;;;3.50;;
80711;SDS011;70078;51.596;5.678;2023-11-19T14:00:43;19.85;;;3.75;;
80711;SDS011;70078;51.596;5.678;2023-11-19T14:03:09;10.30;;;3.67;;
80711;SDS011;70078;51.596;5.678;2023-11-19T14:05:37;13.25;;;3.33;;
80711;SDS011;70078;51.596;5.678;2023-11-19T14:08:03;11.85;;;3.17;;
80711;SDS011;70078;51.596;5.678;2023-11-19T14:10:36;12.73;;;4.05;;
80711;SDS011;70078;51.596;5.678;2023-11-19T14:13:01;16.27;;;3.47;;
80711;SDS011;70078;51.596;5.678;2023-11-19T14:15:27;12.43;;;3.83;;
80711;SDS011;70078;51.596;5.678;2023-11-19T14:17:52;13.95;;;3.38;;
80711;SDS011;70078;51.596;5.678;2023-11-19T14:22:43;13.07;;;3.38;;
80711;SDS011;70078;51.596;5.678;2023-11-19T14:25:09;10.60;;;3.47;;
80711;SDS011;70078;51.596;5.678;2023-11-19T14:27:36;12.88;;;3.50;;
80711;SDS011;70078;51.596;5.678;2023-11-19T14:30:03;10.00;;;3.80;;
80711;SDS011;70078;51.596;5.678;2023-11-19T14:32:30;9.95;;;3.40;;
80711;SDS011;70078;51.596;5.678;2023-11-19T14:34:56;12.75;;;4.03;;
80711;SDS011;70078;51.596;5.678;2023-11-19T14:37:21;16.90;;;4.28;;
80711;SDS011;70078;51.596;5.678;2023-11-19T14:42:11;10.57;;;3.55;;
80711;SDS011;70078;51.596;5.678;2023-11-19T14:44:37;14.55;;;4.28;;
80711;SDS011;70078;51.596;5.678;2023-11-19T14:47:02;13.20;;;3.67;;
80711;SDS011;70078;51.596;5.678;2023-11-19T14:49:28;9.10;;;3.38;;
80711;SDS011;70078;51.596;5.678;2023-11-19T14:51:53;12.05;;;3.90;;
80711;SDS011;70078;51.596;5.678;2023-11-19T14:54:18;11.02;;;3.25;;
80711;SDS011;70078;51.596;5.678;2023-11-19T14:56:43;11.82;;;3.40;;
80711;SDS011;70078;51.596;5.678;2023-11-19T14:59:09;10.20;;;3.72;;
80711;SDS011;70078;51.596;5.678;2023-11-19T15:03:59;13.97;;;4.03;;
80711;SDS011;70078;51.596;5.678;2023-11-19T15:08:54;10.40;;;4.05;;
80711;SDS011;70078;51.596;5.678;2023-11-19T15:11:22;10.50;;;3.45;;
80711;SDS011;70078;51.596;5.678;2023-11-19T15:13:48;25.13;;;7.65;;
80711;SDS011;70078;51.596;5.678;2023-11-19T15:16:14;23.27;;;9.80;;
80711;SDS011;70078;51.596;5.678;2023-11-19T15:18:40;15.75;;;3.95;;
80711;SDS011;70078;51.596;5.678;2023-11-19T15:21:06;12.85;;;3.50;;
80711;SDS011;70078;51.596;5.678;2023-11-19T15:23:31;11.82;;;2.95;;
80711;SDS011;70078;51.596;5.678;2023-11-19T15:25:56;16.27;;;5.43;;
80711;SDS011;70078;51.596;5.678;2023-11-19T15:30:47;13.10;;;3.43;;
80711;SDS011;70078;51.596;5.678;2023-11-19T15:35:38;14.20;;;3.88;;
80711;SDS011;70078;51.596;5.678;2023-11-19T15:38:04;12.73;;;3.90;;
80711;SDS011;70078;51.596;5.678;2023-11-19T15:40:31;19.80;;;4.35;;
80711;SDS011;70078;51.596;5.678;2023-11-19T15:42:57;16.90;;;4.15;;
80711;SDS011;70078;51.596;5.678;2023-11-19T15:47:48;13.57;;;4.40;;
80711;SDS011;70078;51.596;5.678;2023-11-19T15:50:14;12.52;;;3.40;;
80711;SDS011;70078;51.596;5.678;2023-11-19T15:55:05;11.07;;;3.67;;
80711;SDS011;70078;51.596;5.678;2023-11-19T15:57:30;13.48;;;4.28;;
80711;SDS011;70078;51.596;5.678;2023-11-19T15:59:55;10.98;;;3.50;;
80711;SDS011;70078;51.596;5.678;2023-11-19T16:02:21;9.23;;;4.38;;
80711;SDS011;70078;51.596;5.678;2023-11-19T16:04:47;13.38;;;4.15;;
80711;SDS011;70078;51.596;5.678;2023-11-19T16:07:13;12.07;;;3.30;;
80711;SDS011;70078;51.596;5.678;2023-11-19T16:09:40;11.35;;;3.85;;
80711;SDS011;70078;51.596;5.678;2023-11-19T16:12:06;12.38;;;4.10;;
80711;SDS011;70078;51.596;5.678;2023-11-19T16:14:33;9.98;;;3.47;;
80711;SDS011;70078;51.596;5.678;2023-11-19T16:16:58;10.98;;;3.83;;
80711;SDS011;70078;51.596;5.678;2023-11-19T16:19:23;15.32;;;4.15;;
80711;SDS011;70078;51.596;5.678;2023-11-19T16:21:51;11.68;;;3.65;;
80711;SDS011;70078;51.596;5.678;2023-11-19T16:24:17;9.93;;;4.00;;
80711;SDS011;70078;51.596;5.678;2023-11-19T16:29:09;13.68;;;3.15;;
80711;SDS011;70078;51.596;5.678;2023-11-19T16:34:00;13.27;;;3.85;;
80711;SDS011;70078;51.596;5.678;2023-11-19T16:36:26;9.80;;;3.60;;
80711;SDS011;70078;51.596;5.678;2023-11-19T16:41:19;9.27;;;4.83;;
80711;SDS011;70078;51.596;5.678;2023-11-19T16:43:48;10.07;;;3.42;;
80711;SDS011;70078;51.596;5.678;2023-11-19T16:46:18;16.10;;;4.70;;
80711;SDS011;70078;51.596;5.678;2023-11-19T16:51:13;11.60;;;4.00;;
80711;SDS011;70078;51.596;5.678;2023-11-19T16:53:46;14.50;;;3.75;;
80711;SDS011;70078;51.596;5.678;2023-11-19T16:56:12;13.73;;;4.78;;
80711;SDS011;70078;51.596;5.678;2023-11-19T16:58:38;18.63;;;4.70;;
80711;SDS011;70078;51.596;5.678;2023-11-19T17:01:06;11.30;;;3.50;;
80711;SDS011;70078;51.596;5.678;2023-11-19T17:05:57;10.75;;;3.22;;
80711;SDS011;70078;51.596;5.678;2023-11-19T17:08:22;10.98;;;3.15;;
80711;SDS011;70078;51.596;5.678;2023-11-19T17:10:50;10.02;;;2.55;;
80711;SDS011;70078;51.596;5.678;2023-11-19T17:15:40;19.00;;;4.40;;
80711;SDS011;70078;51.596;5.678;2023-11-19T17:20:31;13.83;;;3.10;;
80711;SDS011;70078;51.596;5.678;2023-11-19T17:22:56;8.45;;;3.55;;
80711;SDS011;70078;51.596;5.678;2023-11-19T17:25:21;9.20;;;2.70;;
80711;SDS011;70078;51.596;5.678;2023-11-19T17:27:48;10.25;;;3.72;;
80711;SDS011;70078;51.596;5.678;2023-11-19T17:32:39;6.70;;;3.88;;
80711;SDS011;70078;51.596;5.678;2023-11-19T17:35:05;12.93;;;3.35;;
80711;SDS011;70078;51.596;5.678;2023-11-19T17:37:31;11.27;;;3.85;;
80711;SDS011;70078;51.596;5.678;2023-11-19T17:39:57;8.80;;;3.00;;
80711;SDS011;70078;51.596;5.678;2023-11-19T17:44:47;9.38;;;3.85;;